createdAt,value
2023-05-01T00:01:30.819Z,10.20
2023-05-01T00:03:57.487Z,10.20
2023-05-01T00:06:24.217Z,10.10
2023-05-01T00:08:50.706Z,10.10
2023-05-01T00:11:17.246Z,10.10
2023-05-01T00:13:43.796Z,10.00
2023-05-01T00:16:12.221Z,9.90
2023-05-01T00:18:38.973Z,9.60
2023-05-01T00:21:05.567Z,9.30
2023-05-01T00:23:32.095Z,9.20
2023-05-01T00:25:58.575Z,9.10
2023-05-01T00:28:25.083Z,9.30
2023-05-01T00:30:51.575Z,9.40
2023-05-01T00:33:18.296Z,9.50
2023-05-01T00:35:45.314Z,9.50
2023-05-01T00:38:12.606Z,9.50
2023-05-01T00:40:46.550Z,9.50
2023-05-01T00:43:13.587Z,9.50
2023-05-01T00:45:43.870Z,9.20
2023-05-01T00:48:10.934Z,9.00
2023-05-01T00:50:38.708Z,8.80
2023-05-01T00:53:05.500Z,8.80
2023-05-01T00:55:35.569Z,8.70
2023-05-01T00:58:02.930Z,8.70
2023-05-01T01:00:29.511Z,8.50
2023-05-01T01:02:56.421Z,8.40
2023-05-01T01:05:27.485Z,8.40
2023-05-01T01:08:33.870Z,8.20
2023-05-01T01:11:36.214Z,8.20
2023-05-01T01:14:19.605Z,8.10
2023-05-01T01:17:03.938Z,8.10
2023-05-01T01:20:25.702Z,8.20
2023-05-01T01:24:56.804Z,8.20
2023-05-01T01:29:50.776Z,8.30
2023-05-01T01:33:35.687Z,8.10
2023-05-01T01:36:18.363Z,7.90
2023-05-01T01:39:07.021Z,7.70
2023-05-01T01:41:36.041Z,7.80
2023-05-01T01:45:11.549Z,7.60
2023-05-01T01:47:42.096Z,7.40
2023-05-01T01:50:12.122Z,7.50
2023-05-01T01:52:44.644Z,7.50
2023-05-01T01:55:14.429Z,7.40
2023-05-01T01:57:44.197Z,7.40
2023-05-01T02:00:13.850Z,7.30
2023-05-01T02:02:42.370Z,7.20
2023-05-01T02:05:13.710Z,7.30
2023-05-01T02:07:42.656Z,7.30
2023-05-01T02:10:12.970Z,7.30
2023-05-01T02:12:42.243Z,7.50
2023-05-01T02:15:10.955Z,7.60
2023-05-01T02:17:40.403Z,7.70
2023-05-01T02:20:11.921Z,7.70
2023-05-01T02:22:40.406Z,7.80
2023-05-01T02:25:11.495Z,7.70
2023-05-01T02:27:52.263Z,7.60
2023-05-01T02:30:19.168Z,7.40
2023-05-01T02:32:45.861Z,7.20
2023-05-01T02:35:12.425Z,7.20
2023-05-01T02:37:39.528Z,7.20
2023-05-01T02:40:07.366Z,7.20
2023-05-01T02:42:35.241Z,7.10
2023-05-01T02:45:07.069Z,7.00
2023-05-01T02:47:40.688Z,7.10
2023-05-01T02:50:09.308Z,7.20
2023-05-01T02:52:37.469Z,7.30
2023-05-01T02:55:04.805Z,7.20
2023-05-01T02:57:33.698Z,7.00
2023-05-01T03:00:00.328Z,7.00
2023-05-01T03:02:26.868Z,7.00
2023-05-01T03:04:53.381Z,6.80
2023-05-01T03:07:19.856Z,6.70
2023-05-01T03:09:46.346Z,6.70
2023-05-01T03:12:12.837Z,6.60
2023-05-01T03:14:39.420Z,6.70
2023-05-01T03:17:06.324Z,6.70
2023-05-01T03:19:33.465Z,6.70
2023-05-01T03:21:59.973Z,6.90
2023-05-01T03:24:26.448Z,6.80
2023-05-01T03:26:52.947Z,6.80
2023-05-01T03:29:19.447Z,6.90
2023-05-01T03:31:45.995Z,6.70
2023-05-01T03:34:12.519Z,6.50
2023-05-01T03:36:39.042Z,6.40
2023-05-01T03:39:07.841Z,6.40
2023-05-01T03:41:34.369Z,6.60
2023-05-01T03:44:00.844Z,6.80
2023-05-01T03:46:27.478Z,6.90
2023-05-01T03:48:54.024Z,7.00
2023-05-01T03:51:20.534Z,7.10
2023-05-01T03:53:47.011Z,7.30
2023-05-01T03:56:13.573Z,7.40
2023-05-01T03:58:40.290Z,7.40
2023-05-01T04:01:06.809Z,7.50
2023-05-01T04:03:33.342Z,7.60
2023-05-01T04:05:59.918Z,7.60
2023-05-01T04:08:26.481Z,7.70
2023-05-01T04:10:52.990Z,7.80
2023-05-01T04:13:19.559Z,7.90
2023-05-01T04:15:46.282Z,8.10
2023-05-01T04:18:12.882Z,8.20
2023-05-01T04:20:42.106Z,8.30
2023-05-01T04:23:08.906Z,8.30
2023-05-01T04:25:37.048Z,8.40
2023-05-01T04:28:03.871Z,8.50
2023-05-01T04:30:31.195Z,8.40
2023-05-01T04:32:57.926Z,8.40
2023-05-01T04:35:24.954Z,8.30
2023-05-01T04:37:51.703Z,8.40
2023-05-01T04:40:18.176Z,8.40
2023-05-01T04:42:45.280Z,8.40
2023-05-01T04:45:11.811Z,8.50
2023-05-01T04:47:38.330Z,8.70
2023-05-01T04:50:05.954Z,8.80
2023-05-01T04:52:32.447Z,9.10
2023-05-01T04:54:58.960Z,9.20
2023-05-01T04:57:25.422Z,9.20
2023-05-01T04:59:51.932Z,9.20
2023-05-01T05:02:18.621Z,9.20
2023-05-01T05:04:45.137Z,9.20
2023-05-01T05:07:12.241Z,9.30
2023-05-01T05:09:38.779Z,9.40
2023-05-01T05:12:05.517Z,9.50
2023-05-01T05:14:32.008Z,9.50
2023-05-01T05:16:58.765Z,9.60
2023-05-01T05:19:25.624Z,9.60
2023-05-01T05:21:52.151Z,9.70
2023-05-01T05:24:18.624Z,9.70
2023-05-01T05:26:45.136Z,9.80
2023-05-01T05:29:11.610Z,9.90
2023-05-01T05:31:38.267Z,10.00
2023-05-01T05:34:04.789Z,9.90
2023-05-01T05:36:31.599Z,9.90
2023-05-01T05:38:59.181Z,9.90
2023-05-01T05:41:26.312Z,9.90
2023-05-01T05:43:53.584Z,9.90
2023-05-01T05:46:20.197Z,9.90
2023-05-01T05:48:46.721Z,9.90
2023-05-01T05:51:13.317Z,10.00
2023-05-01T05:53:39.786Z,10.00
2023-05-01T05:56:07.014Z,10.20
2023-05-01T05:58:33.525Z,10.30
2023-05-01T06:01:00.297Z,10.40
2023-05-01T06:03:27.003Z,10.50
2023-05-01T06:05:53.880Z,10.50
2023-05-01T06:08:21.603Z,10.70
2023-05-01T06:10:48.114Z,10.80
2023-05-01T06:13:15.194Z,11.00
2023-05-01T06:15:42.372Z,11.10
2023-05-01T06:18:09.316Z,11.30
2023-05-01T06:20:36.228Z,11.40
2023-05-01T06:23:02.802Z,11.50
2023-05-01T06:25:29.363Z,11.70
2023-05-01T06:27:56.185Z,11.90
2023-05-01T06:30:22.714Z,12.00
2023-05-01T06:32:49.355Z,12.20
2023-05-01T06:35:16.159Z,12.30
2023-05-01T06:37:42.644Z,12.50
2023-05-01T06:40:11.878Z,12.70
2023-05-01T06:42:39.176Z,12.80
2023-05-01T06:45:07.383Z,12.90
2023-05-01T06:47:34.006Z,13.00
2023-05-01T06:50:02.352Z,13.20
2023-05-01T06:52:30.319Z,13.40
2023-05-01T06:54:56.811Z,13.70
2023-05-01T06:57:23.384Z,13.80
2023-05-01T06:59:49.835Z,14.10
2023-05-01T07:02:16.370Z,14.30
2023-05-01T07:04:43.684Z,14.70
2023-05-01T07:07:10.627Z,15.00
2023-05-01T07:09:37.991Z,15.20
2023-05-01T07:12:06.047Z,15.50
2023-05-01T07:14:34.996Z,15.70
2023-05-01T07:17:01.931Z,16.10
2023-05-01T07:19:28.534Z,16.30
2023-05-01T07:21:55.045Z,16.40
2023-05-01T07:24:21.534Z,16.40
2023-05-01T07:26:48.052Z,16.60
2023-05-01T07:29:15.793Z,16.60
2023-05-01T07:31:43.243Z,16.50
2023-05-01T07:34:09.756Z,16.70
2023-05-01T07:36:36.218Z,16.80
2023-05-01T07:39:03.426Z,17.00
2023-05-01T07:41:30.969Z,16.90
2023-05-01T07:44:00.497Z,16.80
2023-05-01T07:46:27.128Z,16.70
2023-05-01T07:48:53.760Z,16.70
2023-05-01T07:51:20.267Z,16.80
2023-05-01T07:53:48.560Z,16.70
2023-05-01T07:56:15.472Z,16.90
2023-05-01T07:58:42.187Z,17.10
2023-05-01T08:01:08.815Z,17.40
2023-05-01T08:03:35.369Z,17.40
2023-05-01T08:06:02.030Z,17.50
2023-05-01T08:08:28.591Z,17.60
2023-05-01T08:10:55.488Z,17.70
2023-05-01T08:13:21.989Z,18.00
2023-05-01T08:15:48.913Z,18.10
2023-05-01T08:18:19.511Z,18.00
2023-05-01T08:20:49.500Z,18.10
2023-05-01T08:23:16.936Z,18.20
2023-05-01T08:25:48.878Z,18.20
2023-05-01T08:28:15.808Z,18.30
2023-05-01T08:30:43.096Z,18.40
2023-05-01T08:33:09.693Z,18.40
2023-05-01T08:35:36.228Z,18.40
2023-05-01T08:38:02.860Z,18.50
2023-05-01T08:40:35.491Z,18.60
2023-05-01T08:43:02.429Z,18.60
2023-05-01T08:45:36.820Z,18.80
2023-05-01T08:48:07.903Z,18.90
2023-05-01T08:50:38.634Z,18.80
2023-05-01T08:53:06.193Z,18.50
2023-05-01T08:55:34.503Z,18.50
2023-05-01T08:58:03.524Z,18.40
2023-05-01T09:00:33.559Z,18.20
2023-05-01T09:03:02.401Z,18.30
2023-05-01T09:05:32.471Z,18.40
2023-05-01T09:08:00.381Z,18.40
2023-05-01T09:10:27.568Z,18.40
2023-05-01T09:13:01.136Z,18.20
2023-05-01T09:15:29.657Z,18.30
2023-05-01T09:18:02.316Z,18.50
2023-05-01T09:20:30.987Z,18.60
2023-05-01T09:22:57.595Z,18.60
2023-05-01T09:25:24.123Z,18.30
2023-05-01T09:27:51.450Z,18.30
2023-05-01T09:30:32.706Z,18.40
2023-05-01T09:33:17.950Z,18.50
2023-05-01T09:35:56.394Z,18.70
2023-05-01T09:38:26.307Z,18.70
2023-05-01T09:40:55.797Z,18.70
2023-05-01T09:43:29.619Z,18.90
2023-05-01T09:46:08.787Z,19.40
2023-05-01T09:48:36.704Z,19.60
2023-05-01T09:53:38.377Z,19.70
2023-05-01T09:56:05.845Z,19.90
2023-05-01T09:58:32.357Z,19.80
2023-05-01T10:00:59.565Z,20.00
2023-05-01T10:03:26.494Z,20.40
2023-05-01T10:05:55.987Z,20.70
2023-05-01T10:08:23.390Z,20.80
2023-05-01T10:11:05.234Z,20.90
2023-05-01T10:13:31.747Z,20.80
2023-05-01T10:16:00.628Z,20.80
2023-05-01T10:18:29.866Z,20.60
2023-05-01T10:20:56.726Z,20.30
2023-05-01T10:23:25.047Z,20.10
2023-05-01T10:25:53.150Z,20.10
2023-05-01T10:28:24.535Z,20.00
2023-05-01T10:30:52.133Z,19.90
2023-05-01T10:33:18.857Z,19.80
2023-05-01T10:35:56.027Z,19.70
2023-05-01T10:38:33.794Z,19.50
2023-05-01T10:41:00.518Z,19.40
2023-05-01T10:43:29.455Z,18.90
2023-05-01T10:47:48.103Z,19.00
2023-05-01T10:50:15.710Z,18.80
2023-05-01T10:55:53.307Z,18.80
2023-05-01T11:01:26.226Z,18.70
2023-05-01T11:03:52.760Z,18.70
2023-05-01T11:06:19.373Z,18.50
2023-05-01T11:08:46.560Z,18.30
2023-05-01T11:12:15.320Z,18.50
2023-05-01T11:16:45.239Z,18.70
2023-05-01T11:20:45.635Z,19.20
2023-05-01T11:23:17.286Z,19.20
2023-05-01T11:25:46.563Z,19.10
2023-05-01T11:28:20.809Z,19.50
2023-05-01T11:30:47.694Z,19.80
2023-05-01T11:33:21.502Z,19.90
2023-05-01T11:35:57.769Z,19.90
2023-05-01T11:38:24.303Z,20.00
2023-05-01T11:41:00.448Z,19.90
2023-05-01T11:43:27.098Z,20.10
2023-05-01T11:45:54.431Z,20.20
2023-05-01T11:48:21.609Z,20.30
2023-05-01T11:50:48.186Z,20.40
2023-05-01T11:53:15.255Z,20.50
2023-05-01T11:55:41.746Z,20.40
2023-05-01T11:58:08.414Z,20.30
2023-05-01T12:00:37.808Z,20.10
2023-05-01T12:03:10.698Z,20.10
2023-05-01T12:05:44.630Z,19.70
2023-05-01T12:08:20.139Z,19.40
2023-05-01T12:10:51.255Z,19.50
2023-05-01T12:13:18.972Z,19.60
2023-05-01T12:15:47.883Z,19.60
2023-05-01T12:18:16.564Z,19.60
2023-05-01T12:20:52.308Z,19.50
2023-05-01T12:23:29.602Z,19.30
2023-05-01T12:25:56.115Z,19.20
2023-05-01T12:28:23.053Z,19.50
2023-05-01T12:30:49.557Z,19.30
2023-05-01T12:33:19.298Z,19.40
2023-05-01T12:35:49.813Z,19.50
2023-05-01T12:38:22.979Z,19.30
2023-05-01T12:40:57.810Z,19.30
2023-05-01T12:43:33.796Z,19.10
2023-05-01T12:46:02.459Z,19.10
2023-05-01T12:48:30.974Z,19.20
2023-05-01T12:50:57.701Z,19.30
2023-05-01T12:53:26.954Z,19.60
2023-05-01T12:55:56.760Z,19.80
2023-05-01T12:58:33.772Z,20.00
2023-05-01T13:01:00.330Z,20.00
2023-05-01T13:03:29.921Z,19.80
2023-05-01T13:06:05.126Z,19.60
2023-05-01T13:08:36.915Z,19.70
2023-05-01T13:11:12.603Z,19.70
2023-05-01T13:13:39.876Z,19.70
2023-05-01T13:16:15.321Z,19.60
2023-05-01T13:18:47.982Z,19.40
2023-05-01T13:21:22.010Z,19.20
2023-05-01T13:24:00.497Z,18.90
2023-05-01T13:26:34.488Z,18.80
2023-05-01T13:29:03.049Z,18.90
2023-05-01T13:31:30.045Z,18.80
2023-05-01T13:33:59.276Z,18.80
2023-05-01T13:36:31.502Z,18.90
2023-05-01T13:38:58.705Z,19.00
2023-05-01T13:41:26.876Z,19.10
2023-05-01T13:43:55.761Z,19.10
2023-05-01T13:46:24.991Z,18.90
2023-05-01T13:48:51.971Z,18.80
2023-05-01T13:51:25.680Z,18.80
2023-05-01T13:53:55.461Z,18.80
2023-05-01T13:56:22.241Z,18.50
2023-05-01T13:58:49.638Z,18.60
2023-05-01T14:01:19.805Z,18.70
2023-05-01T14:03:47.707Z,18.80
2023-05-01T14:06:20.416Z,19.00
2023-05-01T14:08:48.418Z,19.20
2023-05-01T14:11:15.278Z,19.20
2023-05-01T14:13:45.136Z,19.30
2023-05-01T14:16:30.774Z,19.40
2023-05-01T14:18:57.873Z,19.30
2023-05-01T14:21:27.424Z,19.40
2023-05-01T14:23:55.099Z,19.40
2023-05-01T14:26:23.125Z,19.30
2023-05-01T14:28:49.674Z,19.30
2023-05-01T14:31:28.071Z,19.20
2023-05-01T14:34:04.293Z,19.30
2023-05-01T14:36:31.901Z,19.20
2023-05-01T14:39:00.685Z,19.10
2023-05-01T14:41:28.654Z,19.00
2023-05-01T14:43:55.655Z,18.80
2023-05-01T14:46:55.682Z,18.80
2023-05-01T14:49:24.115Z,18.70
2023-05-01T14:51:51.837Z,18.70
2023-05-01T14:54:19.586Z,18.60
2023-05-01T14:56:48.467Z,18.50
2023-05-01T14:59:15.572Z,18.40
2023-05-01T15:01:43.146Z,18.40
2023-05-01T15:04:11.217Z,18.40
2023-05-01T15:06:37.919Z,18.40
2023-05-01T15:09:04.642Z,18.30
2023-05-01T15:11:31.278Z,18.30
2023-05-01T15:13:57.772Z,18.20
2023-05-01T15:16:24.388Z,18.20
2023-05-01T15:18:50.986Z,18.20
2023-05-01T15:21:17.665Z,18.10
2023-05-01T15:23:45.463Z,18.00
2023-05-01T15:26:12.020Z,18.00
2023-05-01T15:28:38.559Z,18.00
2023-05-01T15:31:05.248Z,17.90
2023-05-01T15:33:31.738Z,18.00
2023-05-01T15:35:58.266Z,18.00
2023-05-01T15:38:25.432Z,18.10
2023-05-01T15:40:51.904Z,18.00
2023-05-01T15:43:18.413Z,18.10
2023-05-01T15:45:45.041Z,18.10
2023-05-01T15:48:11.619Z,18.10
2023-05-01T15:50:38.182Z,18.00
2023-05-01T15:53:04.808Z,18.00
2023-05-01T15:55:31.436Z,18.00
2023-05-01T15:57:57.983Z,18.00
2023-05-01T16:00:24.795Z,17.90
2023-05-01T16:02:51.434Z,17.90
2023-05-01T16:05:23.868Z,17.90
2023-05-01T16:08:00.399Z,17.90
2023-05-01T16:10:26.957Z,17.90
2023-05-01T16:12:53.579Z,17.80
2023-05-01T16:15:21.923Z,17.80
2023-05-01T16:17:50.537Z,17.70
2023-05-01T16:20:17.293Z,17.70
2023-05-01T16:22:43.761Z,17.60
2023-05-01T16:25:11.525Z,17.60
2023-05-01T16:27:43.569Z,17.50
2023-05-01T16:30:13.546Z,17.50
2023-05-01T16:32:40.676Z,17.40
2023-05-01T16:35:12.024Z,17.40
2023-05-01T16:37:39.026Z,17.40
2023-05-01T16:40:08.569Z,17.40
2023-05-01T16:42:35.660Z,17.50
2023-05-01T16:45:02.188Z,17.40
2023-05-01T16:47:28.718Z,17.40
2023-05-01T16:50:00.484Z,17.40
2023-05-01T16:52:27.552Z,17.40
2023-05-01T16:54:54.052Z,17.40
2023-05-01T16:57:20.557Z,17.40
2023-05-01T16:59:47.060Z,17.40
2023-05-01T17:02:13.701Z,17.30
2023-05-01T17:04:40.414Z,17.30
2023-05-01T17:07:07.793Z,17.30
2023-05-01T17:09:34.289Z,17.30
2023-05-01T17:12:02.633Z,17.20
2023-05-01T17:14:30.266Z,17.10
2023-05-01T17:16:58.586Z,17.00
2023-05-01T17:19:25.655Z,16.90
2023-05-01T17:21:52.178Z,16.90
2023-05-01T17:24:18.646Z,16.80
2023-05-01T17:26:45.937Z,16.70
2023-05-01T17:29:12.408Z,16.60
2023-05-01T17:31:38.933Z,16.50
2023-05-01T17:34:05.435Z,16.40
2023-05-01T17:36:31.937Z,16.30
2023-05-01T17:39:00.570Z,16.20
2023-05-01T17:41:27.273Z,16.10
2023-05-01T17:43:54.478Z,16.00
2023-05-01T17:46:21.030Z,15.90
2023-05-01T17:48:47.963Z,15.80
2023-05-01T17:51:14.711Z,15.70
2023-05-01T17:53:41.897Z,15.60
2023-05-01T17:56:08.400Z,15.50
2023-05-01T17:58:34.976Z,15.40
2023-05-01T18:01:03.586Z,15.30
2023-05-01T18:03:33.435Z,15.30
2023-05-01T18:06:01.900Z,15.20
2023-05-01T18:08:28.429Z,15.20
2023-05-01T18:10:55.237Z,15.10
2023-05-01T18:13:27.062Z,15.10
2023-05-01T18:15:56.559Z,15.00
2023-05-01T18:18:23.565Z,14.80
2023-05-01T18:20:50.180Z,14.70
2023-05-01T18:23:17.896Z,14.70
2023-05-01T18:25:44.492Z,14.70
2023-05-01T18:28:10.985Z,14.70
2023-05-01T18:30:37.471Z,14.70
2023-05-01T18:33:04.031Z,14.60
2023-05-01T18:35:30.547Z,14.50
2023-05-01T18:37:57.075Z,14.60
2023-05-01T18:40:23.616Z,14.50
2023-05-01T18:42:50.364Z,14.50
2023-05-01T18:45:16.885Z,14.50
2023-05-01T18:47:43.631Z,14.50
2023-05-01T18:50:10.646Z,14.40
2023-05-01T18:52:37.294Z,14.40
2023-05-01T18:55:04.402Z,14.30
2023-05-01T18:57:31.803Z,14.40
2023-05-01T19:00:00.258Z,14.40
2023-05-01T19:02:27.016Z,14.50
2023-05-01T19:04:57.960Z,14.50
2023-05-01T19:07:27.698Z,14.70
2023-05-01T19:09:54.345Z,15.00
2023-05-01T19:12:20.843Z,15.10
2023-05-01T19:14:47.337Z,14.80
2023-05-01T19:17:13.831Z,14.80
2023-05-01T19:19:40.299Z,14.70
2023-05-01T19:22:06.778Z,14.70
2023-05-01T19:24:33.362Z,14.70
2023-05-01T19:27:00.857Z,14.70
2023-05-01T19:29:27.355Z,14.60
2023-05-01T19:31:54.424Z,14.60
2023-05-01T19:34:20.905Z,14.60
2023-05-01T19:36:47.415Z,14.60
2023-05-01T19:39:13.944Z,14.60
2023-05-01T19:41:40.443Z,14.60
2023-05-01T19:44:07.229Z,14.60
2023-05-01T19:46:33.755Z,14.60
2023-05-01T19:49:00.260Z,14.60
2023-05-01T19:51:27.455Z,14.50
2023-05-01T19:53:53.931Z,14.50
2023-05-01T19:56:20.449Z,14.60
2023-05-01T19:58:46.927Z,14.40
2023-05-01T20:01:13.632Z,14.40
2023-05-01T20:03:40.228Z,14.40
2023-05-01T20:06:06.770Z,14.40
2023-05-01T20:08:33.642Z,14.50
2023-05-01T20:11:01.107Z,14.50
2023-05-01T20:13:27.618Z,14.50
2023-05-01T20:15:54.172Z,14.40
2023-05-01T20:18:21.426Z,14.40
2023-05-01T20:20:47.941Z,14.40
2023-05-01T20:23:22.025Z,14.40
2023-05-01T20:25:52.743Z,14.40
2023-05-01T20:28:19.968Z,14.50
2023-05-01T20:30:48.277Z,14.70
2023-05-01T20:33:16.372Z,14.60
2023-05-01T20:35:44.301Z,14.60
2023-05-01T20:38:10.824Z,14.50
2023-05-01T20:40:41.611Z,14.50
2023-05-01T20:43:08.274Z,14.40
2023-05-01T20:45:34.799Z,14.40
2023-05-01T20:48:01.620Z,14.40
2023-05-01T20:50:28.584Z,14.30
2023-05-01T20:52:55.465Z,14.40
2023-05-01T20:55:23.026Z,14.40
2023-05-01T20:57:49.584Z,14.30
2023-05-01T21:00:16.450Z,14.40
2023-05-01T21:02:43.108Z,14.40
2023-05-01T21:05:10.081Z,14.30
2023-05-01T21:07:38.192Z,14.20
2023-05-01T21:10:11.270Z,14.20
2023-05-01T21:12:37.820Z,14.20
2023-05-01T21:15:05.515Z,14.20
2023-05-01T21:17:35.014Z,14.10
2023-05-01T21:20:08.859Z,14.10
2023-05-01T21:22:36.158Z,14.10
2023-05-01T21:25:02.858Z,14.10
2023-05-01T21:27:29.331Z,14.10
2023-05-01T21:30:01.242Z,14.10
2023-05-01T21:32:40.795Z,14.10
2023-05-01T21:35:09.174Z,14.10
2023-05-01T21:37:36.409Z,14.10
2023-05-01T21:40:06.570Z,14.10
2023-05-01T21:42:38.760Z,14.10
2023-05-01T21:45:11.843Z,14.10
2023-05-01T21:47:41.599Z,14.10
2023-05-01T21:50:11.916Z,14.00
2023-05-01T21:52:38.870Z,13.90
2023-05-01T21:55:08.881Z,13.90
2023-05-01T21:57:39.942Z,13.90
2023-05-01T22:00:10.798Z,14.00
2023-05-01T22:02:42.796Z,13.90
2023-05-01T22:05:10.716Z,13.90
2023-05-01T22:07:41.405Z,13.90
2023-05-01T22:10:16.272Z,13.90
2023-05-01T22:12:43.913Z,13.80
2023-05-01T22:15:12.807Z,13.80
2023-05-01T22:17:40.314Z,13.80
2023-05-01T22:20:11.087Z,13.80
2023-05-01T22:22:39.654Z,13.70
2023-05-01T22:25:07.528Z,13.70
2023-05-01T22:27:34.420Z,13.70
2023-05-01T22:30:01.836Z,13.70
2023-05-01T22:32:28.583Z,13.80
2023-05-01T22:34:55.152Z,13.70
2023-05-01T22:37:21.767Z,13.70
2023-05-01T22:39:48.329Z,13.70
2023-05-01T22:42:14.822Z,13.60
2023-05-01T22:44:41.314Z,13.70
2023-05-01T22:47:07.824Z,13.70
2023-05-01T22:49:34.331Z,13.70
2023-05-01T22:52:01.812Z,13.60
2023-05-01T22:54:28.282Z,13.60
2023-05-01T22:56:55.492Z,13.60
2023-05-01T22:59:22.095Z,13.70
2023-05-01T23:01:48.700Z,13.70
2023-05-01T23:04:15.474Z,13.80
2023-05-01T23:06:42.445Z,13.70
2023-05-01T23:09:09.013Z,13.60
2023-05-01T23:11:35.543Z,13.70
2023-05-01T23:14:02.158Z,13.70
2023-05-01T23:16:38.784Z,13.60
2023-05-01T23:19:07.451Z,13.50
2023-05-01T23:21:33.950Z,13.50
2023-05-01T23:24:03.792Z,13.50
2023-05-01T23:26:32.145Z,13.50
2023-05-01T23:28:59.336Z,13.40
2023-05-01T23:31:26.699Z,13.30
2023-05-01T23:33:54.199Z,13.20
2023-05-01T23:36:21.244Z,13.30
2023-05-01T23:38:48.084Z,13.20
2023-05-01T23:41:15.589Z,13.20
2023-05-01T23:43:45.606Z,13.20
2023-05-01T23:46:12.255Z,13.20
2023-05-01T23:48:40.324Z,13.30
2023-05-01T23:51:06.952Z,13.20
2023-05-01T23:53:33.423Z,13.40
2023-05-01T23:55:59.902Z,13.40
2023-05-01T23:58:26.412Z,13.30
